In Rescue
 
Open Full Screen Window  High Contrast Mode
Wind Gusting 00 knots
06
February 24, 2020 5:28 PM CST
Weather Information
Wind Direction
  360 °
Wind Speed
  06 kt (7 mph)
Wind Gust
  00 kt (0 mph)
Altimeter
29.98 in
Visibility
10 SM
Temperature
04° C
39° F
Dewpoint
-06° C
21° F
Humidity
48%
1hr Rain Fall
00.00 in.
24hr Rain Fall
00.00 in.
Sky Condition
Clear
VFR

METAR KSGS 242328Z AUTO 36006KT 10SM CLR 04/M06 A2998 RMK AO2 T00401060

FAA Disclaimer: The data displayed is for advisory purposes only and is not to be used for flight planning or operations.